Time;durP1;ratioP1;P1;durP2;ratioP2;P2;SDS_P1;SDS_P2;PMS_P1;PMS_P2;Temp;Humidity;BMP_temperature;BMP_pressure;BME280_temperature;BME280_humidity;BME280_pressure;Samples;Min_cycle;Max_cycle;Signal;HPM_P1;HPM_P2
2021/08/18 00:00:44;;;;;;;12.87;8.93;;;15.80;99.90;;;;;;4950385;28;20185;-53
2021/08/18 00:03:10;;;;;;;12.30;8.25;;;16.00;99.90;;;;;;4950156;28;20219;-52
2021/08/18 00:05:38;;;;;;;12.88;8.48;;;16.10;99.90;;;;;;4951848;28;20239;-53
2021/08/18 00:08:08;;;;;;;13.85;9.23;;;16.40;99.90;;;;;;4951947;28;20596;-52
2021/08/18 00:10:35;;;;;;;12.15;9.00;;;16.00;99.90;;;;;;4946386;29;20187;-53
2021/08/18 00:13:01;;;;;;;13.57;8.73;;;15.90;99.90;;;;;;4951952;28;20189;-52
2021/08/18 00:15:27;;;;;;;12.93;8.43;;;15.90;99.90;;;;;;4951858;28;20244;-53
2021/08/18 00:17:56;;;;;;;11.63;8.85;;;16.00;99.90;;;;;;4950912;28;20185;-53
2021/08/18 00:20:21;;;;;;;11.40;8.55;;;15.70;99.90;;;;;;4949964;28;20233;-52
2021/08/18 00:22:47;;;;;;;12.83;9.60;;;15.90;99.90;;;;;;4951038;28;20270;-52
2021/08/18 00:25:13;;;;;;;12.80;8.83;;;15.80;99.90;;;;;;4951556;28;20185;-52
2021/08/18 00:27:39;;;;;;;14.80;10.70;;;16.00;99.90;;;;;;4952177;28;20519;-52
2021/08/18 00:30:06;;;;;;;11.97;8.70;;;16.00;99.90;;;;;;4951593;28;20185;-52
2021/08/18 00:32:31;;;;;;;13.13;8.15;;;15.90;99.90;;;;;;4956689;28;20193;-52
2021/08/18 00:34:57;;;;;;;12.87;9.50;;;15.80;99.90;;;;;;4954682;28;20193;-52
2021/08/18 00:37:23;;;;;;;10.63;8.47;;;16.10;99.90;;;;;;4947588;28;20267;-53
2021/08/18 00:39:48;;;;;;;11.30;8.77;;;16.00;99.90;;;;;;4954193;28;20357;-52
2021/08/18 00:42:17;;;;;;;14.63;9.27;;;16.00;99.90;;;;;;4953367;28;20455;-52
2021/08/18 00:44:43;;;;;;;12.45;8.70;;;16.30;99.90;;;;;;4949772;28;20521;-53
2021/08/18 00:47:08;;;;;;;11.93;9.03;;;16.10;99.90;;;;;;4956646;28;20215;-52
2021/08/18 00:49:34;;;;;;;12.60;9.13;;;16.30;99.90;;;;;;4954857;28;20189;-53
2021/08/18 00:52:02;;;;;;;13.43;9.30;;;16.30;99.90;;;;;;4954908;28;20251;-52
2021/08/18 00:54:28;;;;;;;9.80;8.02;;;16.40;99.90;;;;;;4955069;28;20193;-51
2021/08/18 00:56:54;;;;;;;11.23;8.97;;;16.00;99.90;;;;;;4952409;28;20215;-53
2021/08/18 00:59:21;;;;;;;12.05;9.75;;;16.00;99.90;;;;;;4953092;28;20326;-53
2021/08/18 01:01:46;;;;;;;13.25;9.10;;;16.00;99.90;;;;;;4954203;29;20191;-52
2021/08/18 01:04:13;;;;;;;12.37;9.57;;;16.10;99.90;;;;;;4955106;28;20211;-52
2021/08/18 01:06:41;;;;;;;10.85;8.52;;;16.20;99.90;;;;;;4954890;28;20205;-52
2021/08/18 01:09:12;;;;;;;13.50;8.65;;;16.20;99.90;;;;;;4954825;28;20220;-53
2021/08/18 01:11:39;;;;;;;13.50;9.32;;;16.20;99.90;;;;;;4949548;29;20200;-52
2021/08/18 01:14:05;;;;;;;13.25;9.05;;;16.30;99.90;;;;;;4954630;28;21010;-52
2021/08/18 01:16:40;;;;;;;12.80;9.70;;;16.20;99.90;;;;;;4953623;28;20925;-52
2021/08/18 01:19:07;;;;;;;11.48;8.20;;;16.50;99.90;;;;;;4952572;28;20463;-53
2021/08/18 01:21:40;;;;;;;13.68;9.30;;;16.30;99.90;;;;;;4953862;28;20655;-53
2021/08/18 01:24:07;;;;;;;13.52;8.80;;;16.30;99.90;;;;;;4953634;28;20667;-52
2021/08/18 01:26:34;;;;;;;11.90;9.13;;;16.20;99.90;;;;;;4953705;28;20713;-54
2021/08/18 01:29:00;;;;;;;14.30;9.50;;;16.10;99.90;;;;;;4954447;28;20188;-54
2021/08/18 01:31:27;;;;;;;12.50;9.02;;;16.00;99.90;;;;;;4954482;28;20191;-53
2021/08/18 01:33:53;;;;;;;11.88;8.93;;;16.30;99.90;;;;;;4948067;28;20545;-53
2021/08/18 01:36:21;;;;;;;14.00;9.90;;;16.10;99.90;;;;;;4951326;29;20225;-52
2021/08/18 01:38:47;;;;;;;14.40;9.73;;;16.20;99.90;;;;;;4952963;28;20916;-53
2021/08/18 01:41:13;;;;;;;11.40;9.03;;;16.10;99.90;;;;;;4946458;28;20181;-53
2021/08/18 01:43:38;;;;;;;15.50;9.33;;;16.00;99.90;;;;;;4954203;28;20193;-54
2021/08/18 01:46:04;;;;;;;13.00;9.60;;;16.30;99.90;;;;;;4954004;28;20275;-53
2021/08/18 01:48:33;;;;;;;12.60;9.50;;;16.10;99.90;;;;;;4956007;28;20192;-52
2021/08/18 01:51:00;;;;;;;17.25;10.60;;;15.90;99.90;;;;;;4952581;28;20188;-53
2021/08/18 01:53:28;;;;;;;17.70;11.35;;;16.30;99.90;;;;;;4954105;28;20224;-52
2021/08/18 01:56:03;;;;;;;14.10;10.63;;;16.20;99.90;;;;;;4952988;28;20204;-53
2021/08/18 01:58:30;;;;;;;13.52;9.15;;;16.30;99.90;;;;;;4951798;28;20188;-51
2021/08/18 02:00:56;;;;;;;13.65;9.60;;;16.30;99.90;;;;;;4953180;28;20684;-53
2021/08/18 02:03:22;;;;;;;15.00;9.43;;;16.60;99.90;;;;;;4952776;28;20185;-53
2021/08/18 02:05:48;;;;;;;14.48;9.68;;;16.40;99.90;;;;;;4954222;28;20679;-55
2021/08/18 02:08:14;;;;;;;15.57;10.30;;;16.30;99.90;;;;;;4954108;28;20207;-53
2021/08/18 02:10:40;;;;;;;14.10;10.57;;;16.40;99.90;;;;;;4952948;28;20754;-53
2021/08/18 02:13:06;;;;;;;13.68;9.85;;;16.60;99.90;;;;;;4953818;28;20232;-52
2021/08/18 02:15:33;;;;;;;13.57;10.47;;;16.40;99.90;;;;;;4953652;28;20219;-52
2021/08/18 02:18:00;;;;;;;12.57;9.77;;;16.10;99.90;;;;;;4952091;28;20458;-52
2021/08/18 02:20:29;;;;;;;14.30;10.25;;;16.40;99.90;;;;;;4951632;28;20687;-53
2021/08/18 02:22:56;;;;;;;13.93;9.77;;;16.30;99.90;;;;;;4952936;28;20215;-50
2021/08/18 02:25:22;;;;;;;13.88;9.40;;;16.50;99.90;;;;;;4949864;28;20193;-51
2021/08/18 02:27:48;;;;;;;17.15;10.32;;;16.40;99.90;;;;;;4949617;29;20402;-50
2021/08/18 02:30:17;;;;;;;13.57;10.02;;;16.50;99.90;;;;;;4951800;28;20185;-50
2021/08/18 02:32:44;;;;;;;12.77;9.63;;;16.40;99.90;;;;;;4952799;28;20801;-50
2021/08/18 02:35:11;;;;;;;12.80;9.50;;;16.30;99.90;;;;;;4953800;28;20270;-54
2021/08/18 02:37:37;;;;;;;12.65;9.93;;;16.20;99.90;;;;;;4951717;28;20240;-50
2021/08/18 02:40:04;;;;;;;11.13;8.73;;;16.30;99.90;;;;;;4950563;29;20299;-53
2021/08/18 02:42:30;;;;;;;11.07;8.75;;;16.30;99.90;;;;;;4951275;28;20524;-50
2021/08/18 02:44:55;;;;;;;10.90;9.20;;;16.60;99.90;;;;;;4948037;28;20185;-53
2021/08/18 02:47:21;;;;;;;12.60;9.43;;;16.30;99.90;;;;;;4955870;28;20224;-51
2021/08/18 02:49:47;;;;;;;14.40;9.20;;;16.60;99.90;;;;;;4952890;28;20542;-51
2021/08/18 02:52:13;;;;;;;12.87;9.33;;;16.40;99.90;;;;;;4952535;28;20196;-51
2021/08/18 02:54:39;;;;;;;13.20;8.50;;;16.20;99.90;;;;;;4952977;28;20193;-52
2021/08/18 02:57:05;;;;;;;11.10;8.85;;;16.50;99.90;;;;;;4950244;28;20309;-52
2021/08/18 02:59:31;;;;;;;12.37;8.77;;;16.40;99.90;;;;;;4951311;28;20299;-52
2021/08/18 03:01:56;;;;;;;15.50;10.83;;;16.40;99.90;;;;;;4952187;28;20453;-52
2021/08/18 03:04:22;;;;;;;13.57;10.27;;;16.70;99.90;;;;;;4952083;28;20816;-53
2021/08/18 03:06:48;;;;;;;13.07;10.40;;;16.30;99.90;;;;;;4952763;28;20296;-52
2021/08/18 03:09:13;;;;;;;13.23;9.70;;;16.50;99.90;;;;;;4950888;28;20222;-51
2021/08/18 03:11:39;;;;;;;11.50;8.70;;;16.40;99.90;;;;;;4952265;28;20191;-51
2021/08/18 03:14:05;;;;;;;11.80;8.73;;;16.50;99.90;;;;;;4952423;28;20189;-52
2021/08/18 03:16:31;;;;;;;12.40;9.90;;;16.60;99.90;;;;;;4952004;28;20217;-51
2021/08/18 03:18:56;;;;;;;13.93;9.60;;;16.40;99.90;;;;;;4950007;28;20267;-50
2021/08/18 03:21:22;;;;;;;12.10;8.77;;;16.50;99.90;;;;;;4951612;28;20689;-51
2021/08/18 03:23:48;;;;;;;12.53;8.80;;;16.30;99.90;;;;;;4952571;28;20189;-51
2021/08/18 03:26:14;;;;;;;10.10;7.80;;;16.50;99.90;;;;;;4951918;28;20760;-51
2021/08/18 03:28:39;;;;;;;12.15;9.40;;;16.40;99.90;;;;;;4952137;28;20193;-51
2021/08/18 03:31:05;;;;;;;11.17;9.07;;;16.40;99.90;;;;;;4952192;28;20189;-51
2021/08/18 03:33:31;;;;;;;15.70;10.07;;;16.50;99.90;;;;;;4952016;28;20189;-52
2021/08/18 03:35:56;;;;;;;12.90;9.10;;;16.40;99.90;;;;;;4951256;28;20220;-52
2021/08/18 03:38:22;;;;;;;11.50;9.13;;;16.20;99.90;;;;;;4950512;28;20200;-52
2021/08/18 03:40:52;;;;;;;12.53;9.23;;;16.40;99.90;;;;;;4950030;28;20268;-52
2021/08/18 03:43:18;;;;;;;13.55;9.43;;;16.40;99.90;;;;;;4951468;28;20674;-53
2021/08/18 03:45:43;;;;;;;10.40;7.97;;;16.40;99.90;;;;;;4952691;28;20216;-53
2021/08/18 03:48:09;;;;;;;13.47;9.60;;;16.40;99.90;;;;;;4959875;28;20193;-53
2021/08/18 03:50:35;;;;;;;10.80;8.73;;;16.30;99.90;;;;;;4952205;28;20193;-54
2021/08/18 03:53:00;;;;;;;13.87;9.67;;;16.60;99.90;;;;;;4952254;28;20196;-53
2021/08/18 03:55:26;;;;;;;10.60;8.60;;;16.30;99.90;;;;;;4951791;28;20191;-53
2021/08/18 03:57:52;;;;;;;12.40;9.17;;;16.00;99.90;;;;;;4951073;28;20189;-54
2021/08/18 04:00:18;;;;;;;10.80;8.20;;;16.30;99.90;;;;;;4950468;28;20745;-53
2021/08/18 04:02:43;;;;;;;12.30;9.07;;;16.60;99.90;;;;;;4952032;28;20189;-51
2021/08/18 04:05:10;;;;;;;11.13;8.47;;;16.40;99.90;;;;;;4952266;28;20527;-51
2021/08/18 04:07:36;;;;;;;10.77;7.50;;;16.40;99.90;;;;;;4953757;28;20201;-51
2021/08/18 04:10:02;;;;;;;8.87;7.30;;;16.20;99.90;;;;;;4954929;28;20190;-51
2021/08/18 04:12:28;;;;;;;8.73;7.07;;;16.40;99.90;;;;;;4955817;28;20550;-51
2021/08/18 04:14:53;;;;;;;10.37;7.50;;;16.30;99.90;;;;;;4955893;28;20195;-51
2021/08/18 04:17:21;;;;;;;8.70;6.90;;;16.40;99.90;;;;;;4952715;28;20212;-51
2021/08/18 04:19:47;;;;;;;10.10;6.85;;;16.40;99.90;;;;;;4953427;28;20654;-52
2021/08/18 04:22:12;;;;;;;9.87;7.23;;;16.40;99.90;;;;;;4955332;28;20327;-53
2021/08/18 04:24:38;;;;;;;9.17;7.40;;;16.30;99.90;;;;;;4955560;28;20543;-53
2021/08/18 04:27:04;;;;;;;9.13;7.40;;;16.40;99.90;;;;;;4950462;28;20690;-52
2021/08/18 04:29:30;;;;;;;8.07;7.28;;;16.40;99.90;;;;;;4955555;28;20196;-53
2021/08/18 04:31:57;;;;;;;8.63;6.83;;;16.40;99.90;;;;;;4954503;28;20193;-53
2021/08/18 04:34:23;;;;;;;8.07;6.43;;;16.50;99.90;;;;;;4952724;29;20192;-53
2021/08/18 04:36:48;;;;;;;9.73;7.27;;;16.50;99.90;;;;;;4955345;28;20209;-53
2021/08/18 04:39:14;;;;;;;7.93;6.40;;;16.50;99.90;;;;;;4955261;28;20471;-52
2021/08/18 04:41:40;;;;;;;8.60;6.87;;;16.20;99.90;;;;;;4951155;28;20208;-52
2021/08/18 04:44:05;;;;;;;7.80;6.90;;;16.40;99.90;;;;;;4954857;28;20555;-53
2021/08/18 04:46:31;;;;;;;8.50;6.70;;;16.30;99.90;;;;;;4955518;28;20205;-58
2021/08/18 04:48:57;;;;;;;7.27;6.47;;;16.40;99.90;;;;;;4955313;28;20248;-59
2021/08/18 04:51:22;;;;;;;9.17;7.70;;;16.40;99.90;;;;;;4955096;28;20193;-56
2021/08/18 04:53:49;;;;;;;8.33;6.23;;;15.70;99.90;;;;;;4954449;28;20725;-58
2021/08/18 04:56:15;;;;;;;8.70;5.90;;;16.10;99.90;;;;;;4946999;29;20228;-58
2021/08/18 04:58:41;;;;;;;7.90;5.53;;;16.20;99.90;;;;;;4946697;28;20686;-58
2021/08/18 05:01:06;;;;;;;7.77;6.30;;;16.40;99.90;;;;;;4947175;29;20191;-60
2021/08/18 05:03:32;;;;;;;7.53;5.90;;;16.30;99.90;;;;;;4954838;28;20643;-58
2021/08/18 05:05:58;;;;;;;8.97;5.90;;;16.10;99.90;;;;;;4954232;28;20653;-60
2021/08/18 05:08:23;;;;;;;6.93;5.47;;;16.10;99.90;;;;;;4954579;28;20655;-59
2021/08/18 05:10:49;;;;;;;6.37;5.10;;;16.00;99.90;;;;;;4950812;29;20187;-60
2021/08/18 05:13:14;;;;;;;7.50;6.03;;;16.10;99.90;;;;;;4954157;28;20667;-59
2021/08/18 05:15:41;;;;;;;7.43;5.60;;;16.00;99.90;;;;;;4953561;29;20201;-59
2021/08/18 05:18:06;;;;;;;7.15;6.10;;;16.30;99.90;;;;;;4952396;28;20169;-56
2021/08/18 05:20:32;;;;;;;7.20;5.50;;;15.90;99.90;;;;;;4953201;28;20299;-56
2021/08/18 05:22:58;;;;;;;7.67;5.60;;;15.90;99.90;;;;;;4950517;28;20190;-55
2021/08/18 05:25:23;;;;;;;6.70;5.47;;;16.20;99.90;;;;;;4951944;29;20173;-57
2021/08/18 05:27:49;;;;;;;6.83;5.83;;;16.10;99.90;;;;;;4954099;28;20182;-58
2021/08/18 05:30:16;;;;;;;7.70;5.45;;;15.80;99.90;;;;;;4953702;28;20555;-56
2021/08/18 05:32:43;;;;;;;8.85;6.40;;;15.90;99.90;;;;;;4954183;29;20232;-55
2021/08/18 05:35:11;;;;;;;8.77;5.60;;;16.00;99.90;;;;;;4953733;28;20195;-55
2021/08/18 05:37:37;;;;;;;6.88;5.50;;;16.00;99.90;;;;;;4954358;29;20291;-55
2021/08/18 05:40:03;;;;;;;8.55;5.53;;;15.80;99.90;;;;;;4951981;28;20197;-58
2021/08/18 05:42:29;;;;;;;6.20;5.50;;;16.10;99.90;;;;;;4951986;28;20212;-58
2021/08/18 05:44:55;;;;;;;6.80;5.50;;;16.00;99.90;;;;;;4953446;28;20843;-55
2021/08/18 05:47:21;;;;;;;7.10;6.00;;;16.10;99.90;;;;;;4959373;28;20703;-57
2021/08/18 05:49:49;;;;;;;6.68;5.50;;;16.00;99.90;;;;;;4946096;28;20197;-59
2021/08/18 05:52:15;;;;;;;6.05;5.05;;;16.00;99.90;;;;;;4946575;28;20228;-55
2021/08/18 05:54:40;;;;;;;6.32;4.82;;;15.90;99.90;;;;;;4963150;28;20200;-55
2021/08/18 05:57:06;;;;;;;6.63;4.80;;;16.20;99.90;;;;;;4951240;28;20213;-54
2021/08/18 05:59:32;;;;;;;5.47;4.23;;;16.40;99.90;;;;;;4953719;28;20212;-54
2021/08/18 06:01:58;;;;;;;6.43;4.87;;;16.50;99.90;;;;;;4953507;28;20444;-52
2021/08/18 06:04:23;;;;;;;6.80;4.27;;;16.30;99.90;;;;;;4951748;28;20267;-54
2021/08/18 06:06:49;;;;;;;6.03;4.87;;;16.50;99.90;;;;;;4954025;28;20208;-54
2021/08/18 06:09:14;;;;;;;5.93;4.50;;;16.20;99.90;;;;;;4953311;28;20268;-55
2021/08/18 06:11:40;;;;;;;5.30;3.80;;;16.70;99.90;;;;;;4951315;28;20197;-54
2021/08/18 06:14:07;;;;;;;10.77;5.22;;;16.70;99.90;;;;;;4953574;28;20180;-54
2021/08/18 06:16:33;;;;;;;6.05;4.28;;;16.90;99.90;;;;;;4952954;28;20221;-55
2021/08/18 06:18:59;;;;;;;5.57;4.25;;;16.90;99.90;;;;;;4950842;28;20213;-54
2021/08/18 06:21:25;;;;;;;4.30;3.90;;;17.00;99.90;;;;;;4952872;28;20185;-55
2021/08/18 06:23:54;;;;;;;4.90;4.38;;;17.30;99.90;;;;;;4953220;28;20534;-53
2021/08/18 06:26:20;;;;;;;5.30;4.35;;;17.20;99.90;;;;;;4952375;28;20776;-55
2021/08/18 06:28:45;;;;;;;5.73;5.10;;;17.20;99.90;;;;;;4951506;29;20200;-54
2021/08/18 06:31:11;;;;;;;4.77;3.97;;;17.20;99.90;;;;;;4952556;28;20192;-55
2021/08/18 06:33:37;;;;;;;6.67;4.27;;;17.30;99.90;;;;;;4953082;28;20192;-54
2021/08/18 06:36:03;;;;;;;4.90;3.53;;;17.30;99.90;;;;;;4950537;28;20208;-52
2021/08/18 06:38:32;;;;;;;5.23;4.40;;;17.20;99.90;;;;;;4952354;28;20737;-54
2021/08/18 06:40:58;;;;;;;5.80;4.50;;;17.40;99.90;;;;;;4952410;28;20452;-55
2021/08/18 06:43:23;;;;;;;7.45;4.60;;;17.10;99.90;;;;;;4950968;28;20224;-54
2021/08/18 06:45:49;;;;;;;6.07;4.90;;;17.30;99.90;;;;;;4952674;28;20232;-53
2021/08/18 06:48:15;;;;;;;5.70;4.53;;;17.20;99.90;;;;;;4956766;28;20185;-53
2021/08/18 06:50:41;;;;;;;5.87;5.07;;;17.30;99.90;;;;;;4951645;28;20222;-54
2021/08/18 06:53:06;;;;;;;5.00;4.47;;;17.60;99.90;;;;;;4952325;28;20305;-55
2021/08/18 06:55:34;;;;;;;6.70;5.10;;;17.60;99.90;;;;;;4951455;28;20647;-54
2021/08/18 06:57:59;;;;;;;5.57;4.90;;;17.80;99.90;;;;;;4952369;28;20248;-51
2021/08/18 07:00:25;;;;;;;5.00;4.50;;;17.80;99.90;;;;;;4951766;28;20217;-53
2021/08/18 07:02:51;;;;;;;6.03;4.37;;;18.00;99.90;;;;;;4952260;28;20554;-54
2021/08/18 07:05:19;;;;;;;5.90;4.45;;;18.00;99.90;;;;;;4945949;28;20673;-53
2021/08/18 07:07:45;;;;;;;4.57;4.18;;;18.00;99.90;;;;;;4952121;28;20680;-55
2021/08/18 07:10:11;;;;;;;5.13;3.93;;;17.70;99.90;;;;;;4951177;28;20236;-54
2021/08/18 07:12:37;;;;;;;5.70;4.57;;;17.90;99.90;;;;;;4951830;28;20451;-54
2021/08/18 07:15:04;;;;;;;4.50;4.10;;;17.80;99.90;;;;;;4950927;28;20413;-55
2021/08/18 07:17:30;;;;;;;4.60;4.00;;;17.90;99.90;;;;;;4951938;28;20732;-55
2021/08/18 07:19:55;;;;;;;6.33;4.23;;;18.10;99.90;;;;;;4949241;28;20216;-57
2021/08/18 07:22:21;;;;;;;5.87;4.60;;;18.20;99.90;;;;;;4951475;28;20189;-55
2021/08/18 07:24:47;;;;;;;4.27;3.57;;;18.20;99.90;;;;;;4952549;28;20189;-55
2021/08/18 07:27:12;;;;;;;4.00;3.40;;;18.40;99.90;;;;;;4951595;28;20217;-53
2021/08/18 07:29:38;;;;;;;5.83;4.07;;;18.60;99.90;;;;;;4951815;28;20595;-54
2021/08/18 07:32:04;;;;;;;4.67;3.80;;;18.70;99.90;;;;;;4952555;28;20255;-53
2021/08/18 07:34:32;;;;;;;4.00;3.33;;;18.80;99.90;;;;;;4949305;29;20548;-53
2021/08/18 07:36:58;;;;;;;5.00;4.50;;;18.80;99.90;;;;;;4951248;28;20575;-52
2021/08/18 07:39:23;;;;;;;3.57;3.27;;;18.80;99.90;;;;;;4951968;28;20219;-55
2021/08/18 07:41:49;;;;;;;2.87;2.60;;;18.90;99.90;;;;;;4951026;28;20200;-52
2021/08/18 07:44:15;;;;;;;2.80;2.60;;;19.00;99.90;;;;;;4952140;28;20200;-53
2021/08/18 07:46:40;;;;;;;4.67;3.00;;;19.30;99.90;;;;;;4952432;28;20596;-53
2021/08/18 07:49:06;;;;;;;3.50;2.70;;;19.50;99.90;;;;;;4951674;28;20197;-54
2021/08/18 07:51:32;;;;;;;3.60;3.13;;;19.70;99.90;;;;;;4952177;28;20203;-55
2021/08/18 07:53:57;;;;;;;3.60;3.00;;;19.90;99.90;;;;;;4951154;28;20197;-54
2021/08/18 07:56:23;;;;;;;4.40;3.30;;;20.40;99.90;;;;;;4947825;28;20215;-52
2021/08/18 07:58:49;;;;;;;3.93;2.93;;;20.50;99.90;;;;;;4951212;28;20200;-53
2021/08/18 08:01:14;;;;;;;2.70;2.50;;;21.10;99.80;;;;;;4951557;28;20644;-56
2021/08/18 08:03:40;;;;;;;3.63;2.67;;;21.80;98.00;;;;;;4951602;28;20208;-54
2021/08/18 08:06:06;;;;;;;2.50;2.30;;;22.20;97.00;;;;;;4950599;28;20208;-56
2021/08/18 08:08:31;;;;;;;1.90;1.70;;;22.30;96.30;;;;;;4951372;28;20184;-53
2021/08/18 08:10:57;;;;;;;3.10;2.07;;;22.40;95.60;;;;;;4951245;28;20236;-53
2021/08/18 08:13:22;;;;;;;2.00;1.80;;;22.30;95.60;;;;;;4951345;28;20608;-55
2021/08/18 08:15:48;;;;;;;1.70;1.47;;;22.00;95.70;;;;;;4951324;28;20682;-53
2021/08/18 08:18:14;;;;;;;2.30;1.57;;;21.30;96.50;;;;;;4951467;28;20192;-54
2021/08/18 08:20:40;;;;;;;1.87;1.60;;;21.10;97.20;;;;;;4948737;29;20700;-53
2021/08/18 08:23:05;;;;;;;5.50;4.60;;;21.00;97.40;;;;;;4950929;28;20658;-55
2021/08/18 08:25:32;;;;;;;2.90;2.40;;;20.90;97.80;;;;;;4947865;28;20497;-55
2021/08/18 08:27:58;;;;;;;3.30;2.10;;;20.80;97.80;;;;;;4951357;28;20177;-55
2021/08/18 08:30:24;;;;;;;2.50;1.53;;;20.70;98.30;;;;;;4950685;28;20192;-53
2021/08/18 08:32:49;;;;;;;1.60;1.40;;;20.60;98.40;;;;;;4951072;28;20448;-54
2021/08/18 08:35:16;;;;;;;2.00;1.27;;;20.30;99.00;;;;;;4950521;28;20184;-56
2021/08/18 08:37:42;;;;;;;1.80;1.00;;;20.40;99.20;;;;;;4950582;28;20235;-54
2021/08/18 08:40:08;;;;;;;1.10;1.00;;;20.30;98.90;;;;;;4948298;28;20690;-54
2021/08/18 08:42:36;;;;;;;1.58;1.30;;;20.40;99.10;;;;;;4950724;28;20614;-53
2021/08/18 08:45:04;;;;;;;1.23;1.05;;;20.40;99.20;;;;;;4951717;28;20513;-53
2021/08/18 08:47:29;;;;;;;1.00;0.90;;;20.30;99.30;;;;;;4948658;28;20639;-55
2021/08/18 08:49:56;;;;;;;6.63;5.70;;;20.10;99.70;;;;;;4950519;28;20275;-53
2021/08/18 08:52:23;;;;;;;1.98;1.58;;;20.10;99.90;;;;;;4944584;29;20444;-53
2021/08/18 08:54:48;;;;;;;2.65;1.30;;;19.90;99.90;;;;;;4952655;28;20193;-53
2021/08/18 08:57:14;;;;;;;2.47;2.27;;;20.10;99.90;;;;;;4953416;28;20218;-56
2021/08/18 08:59:40;;;;;;;2.57;1.90;;;20.10;99.90;;;;;;4954349;28;20260;-57
2021/08/18 09:02:08;;;;;;;3.40;1.73;;;20.20;99.90;;;;;;4954624;28;20244;-58
2021/08/18 09:04:39;;;;;;;1.98;1.02;;;20.30;99.90;;;;;;4948177;29;20212;-56
2021/08/18 09:07:15;;;;;;;1.40;1.30;;;20.10;99.90;;;;;;4953037;28;20205;-57
2021/08/18 09:09:50;;;;;;;1.85;1.13;;;20.30;99.90;;;;;;4953634;28;20213;-57
2021/08/18 09:12:18;;;;;;;4.78;3.50;;;20.30;99.80;;;;;;4952734;28;20299;-58
2021/08/18 09:14:44;;;;;;;2.67;1.70;;;20.20;99.90;;;;;;4953424;28;20189;-57
2021/08/18 09:17:35;;;;;;;2.42;1.83;;;20.00;99.90;;;;;;4953812;28;20228;-56
2021/08/18 09:20:24;;;;;;;1.40;1.02;;;20.00;99.90;;;;;;4947445;29;20618;-57
2021/08/18 09:22:56;;;;;;;3.35;1.33;;;19.60;99.90;;;;;;4951054;29;20211;-56
2021/08/18 09:25:21;;;;;;;2.55;1.90;;;19.60;99.90;;;;;;4952314;28;20208;-58
2021/08/18 09:27:49;;;;;;;3.80;3.20;;;19.70;99.90;;;;;;4953935;29;20643;-57
2021/08/18 09:30:24;;;;;;;4.40;3.95;;;19.70;99.90;;;;;;4953794;28;20197;-58
2021/08/18 09:32:50;;;;;;;1.35;1.25;;;19.60;99.90;;;;;;4952400;28;20224;-57
2021/08/18 09:35:18;;;;;;;1.88;1.77;;;19.60;99.90;;;;;;4953239;28;20627;-55
2021/08/18 09:38:14;;;;;;;1.90;1.50;;;19.60;99.90;;;;;;4954092;28;20242;-54
2021/08/18 09:40:47;;;;;;;2.15;1.83;;;19.50;99.90;;;;;;4938911;29;20248;-55
2021/08/18 09:43:24;;;;;;;2.75;0.90;;;19.50;99.90;;;;;;4953687;29;20291;-55
2021/08/18 09:46:01;;;;;;;1.67;1.40;;;19.70;99.90;;;;;;4952916;29;20205;-54
2021/08/18 09:48:28;;;;;;;1.10;0.98;;;20.00;99.90;;;;;;4952826;28;20240;-55
2021/08/18 09:50:58;;;;;;;1.08;0.75;;;20.20;99.90;;;;;;4953090;28;20190;-54
2021/08/18 09:53:33;;;;;;;2.10;1.70;;;20.40;99.90;;;;;;4953613;28;20189;-54
2021/08/18 09:56:04;;;;;;;0.90;0.65;;;20.40;99.90;;;;;;4944484;29;20201;-55
2021/08/18 09:58:31;;;;;;;0.90;0.60;;;20.30;99.80;;;;;;4952973;29;20177;-53
2021/08/18 10:00:59;;;;;;;0.80;0.60;;;20.70;99.70;;;;;;4952928;28;20209;-55
2021/08/18 10:03:26;;;;;;;1.80;0.90;;;21.00;99.20;;;;;;4952385;28;20195;-53
2021/08/18 10:05:54;;;;;;;1.10;0.95;;;21.00;98.80;;;;;;4952612;28;20227;-54
2021/08/18 10:08:20;;;;;;;0.93;0.82;;;20.90;99.40;;;;;;4952379;28;20553;-54
2021/08/18 10:10:47;;;;;;;0.80;0.70;;;21.10;98.60;;;;;;4939261;29;20261;-54
2021/08/18 10:13:13;;;;;;;0.88;0.60;;;21.60;98.40;;;;;;4953023;28;20216;-54
2021/08/18 10:15:39;;;;;;;1.10;1.00;;;22.00;97.60;;;;;;4952551;28;20683;-54
2021/08/18 10:18:06;;;;;;;1.30;0.90;;;22.40;96.90;;;;;;4945322;28;20531;-54
2021/08/18 10:20:33;;;;;;;0.77;0.60;;;22.20;96.60;;;;;;4951553;28;20682;-55
2021/08/18 10:23:07;;;;;;;1.20;1.10;;;22.10;96.20;;;;;;4952313;28;20444;-53
2021/08/18 10:25:35;;;;;;;0.90;0.80;;;22.00;96.80;;;;;;4950132;28;20267;-53
2021/08/18 10:28:03;;;;;;;1.37;0.90;;;22.00;96.80;;;;;;4952613;28;20188;-53
2021/08/18 10:30:29;;;;;;;1.57;1.27;;;22.20;96.10;;;;;;4951589;28;20906;-55
2021/08/18 10:32:55;;;;;;;2.50;0.97;;;22.10;95.60;;;;;;4952790;28;20440;-54
2021/08/18 10:35:35;;;;;;;0.90;0.70;;;22.00;95.40;;;;;;4952057;28;20455;-54
2021/08/18 10:38:29;;;;;;;1.10;1.00;;;21.70;96.00;;;;;;4951620;28;20440;-53
2021/08/18 10:40:55;;;;;;;1.63;1.20;;;21.60;96.70;;;;;;4951133;29;20228;-55
2021/08/18 10:43:52;;;;;;;1.73;1.15;;;21.50;97.40;;;;;;4951991;28;20775;-54
2021/08/18 10:46:18;;;;;;;1.30;1.20;;;21.30;97.50;;;;;;4943817;29;20205;-55
2021/08/18 10:48:56;;;;;;;1.20;1.10;;;21.20;97.50;;;;;;4953262;28;20207;-54
2021/08/18 10:51:39;;;;;;;1.38;1.27;;;21.20;97.80;;;;;;4952546;28;20485;-54
2021/08/18 10:54:27;;;;;;;2.03;1.80;;;21.10;98.20;;;;;;4951189;28;20196;-56
2021/08/18 10:56:57;;;;;;;1.35;1.23;;;21.20;98.60;;;;;;4949229;29;20219;-55
2021/08/18 10:59:35;;;;;;;1.45;1.35;;;21.40;97.50;;;;;;4952207;28;20209;-54
2021/08/18 11:02:01;;;;;;;2.15;1.10;;;21.60;97.60;;;;;;4950800;28;20506;-53
2021/08/18 11:04:56;;;;;;;0.83;0.83;;;21.60;97.90;;;;;;4945753;29;20181;-54
2021/08/18 11:08:00;;;;;;;1.50;1.40;;;21.90;97.00;;;;;;4945730;29;20468;-54
2021/08/18 11:10:27;;;;;;;1.50;1.30;;;22.10;97.10;;;;;;4996348;22;20566;-89
2021/08/18 11:12:53;;;;;;;2.50;2.30;;;21.60;97.60;;;;;;4985273;28;20635;-89
2021/08/18 11:15:19;;;;;;;2.08;1.90;;;21.50;97.90;;;;;;4996790;28;20605;-86
2021/08/18 11:17:49;;;;;;;3.33;1.70;;;21.40;98.10;;;;;;4976119;28;20194;-86
2021/08/18 11:20:20;;;;;;;1.98;1.88;;;21.30;98.00;;;;;;4994876;28;20223;-92
2021/08/18 11:22:52;;;;;;;1.55;1.40;;;21.10;98.60;;;;;;4981468;28;20187;-93
2021/08/18 11:25:19;;;;;;;6.53;5.63;;;21.10;99.00;;;;;;4982889;28;20172;-93
2021/08/18 11:27:56;;;;;;;3.00;2.70;;;20.80;99.90;;;;;;4979784;28;20194;-94
2021/08/18 11:30:27;;;;;;;2.45;1.90;;;20.80;99.90;;;;;;4993912;28;20203;-93
2021/08/18 11:32:53;;;;;;;1.70;1.60;;;20.70;99.90;;;;;;4991059;28;20184;-94
2021/08/18 11:35:36;;;;;;;2.00;1.90;;;20.50;99.90;;;;;;4985061;28;20187;-87
2021/08/18 11:38:06;;;;;;;1.85;1.75;;;20.60;99.90;;;;;;4980762;28;20187;-84
2021/08/18 11:40:32;;;;;;;1.48;1.38;;;20.60;99.90;;;;;;4992145;28;20204;-90
2021/08/18 11:42:58;;;;;;;1.70;1.60;;;20.70;99.90;;;;;;4981781;28;20183;-91
2021/08/18 11:45:24;;;;;;;2.17;1.40;;;20.90;99.90;;;;;;4976498;28;20182;-87
2021/08/18 11:47:51;;;;;;;2.17;1.97;;;21.10;99.90;;;;;;4980816;28;20519;-86
2021/08/18 11:50:17;;;;;;;1.50;1.35;;;21.20;99.70;;;;;;4977312;28;20214;-88
2021/08/18 11:52:43;;;;;;;1.60;1.50;;;21.00;99.40;;;;;;4977627;28;20192;-88
2021/08/18 11:55:10;;;;;;;1.85;1.60;;;21.10;99.90;;;;;;4979309;28;20239;-87
2021/08/18 11:57:35;;;;;;;2.92;2.25;;;21.20;99.90;;;;;;4975969;28;20188;-90
2021/08/18 12:00:05;;;;;;;1.60;1.50;;;21.50;99.90;;;;;;4978620;28;20223;-91
2021/08/18 12:02:33;;;;;;;1.60;1.50;;;21.60;98.60;;;;;;4990822;28;20184;-94
2021/08/18 12:05:00;;;;;;;1.45;1.35;;;21.60;98.50;;;;;;4987725;28;20192;-90
2021/08/18 12:07:30;;;;;;;1.90;1.58;;;21.60;98.40;;;;;;4986785;28;20210;-89
2021/08/18 12:10:23;;;;;;;1.63;1.52;;;21.60;98.60;;;;;;4990909;28;20219;-92
2021/08/18 12:13:04;;;;;;;1.70;1.60;;;21.80;98.70;;;;;;4986032;28;20529;-93
2021/08/18 12:15:35;;;;;;;1.50;1.40;;;22.00;98.00;;;;;;5000029;28;20452;-90
2021/08/18 12:18:00;;;;;;;1.65;1.55;;;22.10;98.00;;;;;;4984961;28;20440;-89
2021/08/18 12:20:32;;;;;;;1.60;1.43;;;22.00;97.70;;;;;;4984361;28;20577;-90
2021/08/18 12:22:59;;;;;;;1.60;1.50;;;21.90;97.80;;;;;;4986609;28;20426;-92
2021/08/18 12:25:34;;;;;;;1.60;1.50;;;21.90;98.50;;;;;;4994954;28;20318;-91
2021/08/18 12:28:12;;;;;;;1.90;1.77;;;21.70;98.20;;;;;;4994100;28;20569;-86
2021/08/18 12:31:03;;;;;;;1.40;1.30;;;21.40;99.10;;;;;;4987549;28;20631;-91
2021/08/18 12:33:31;;;;;;;2.00;1.70;;;21.50;98.30;;;;;;5004747;28;20191;-86
2021/08/18 12:36:04;;;;;;;1.48;1.38;;;21.80;98.70;;;;;;4988636;28;20643;-88
2021/08/18 12:38:30;;;;;;;1.50;1.40;;;22.10;98.10;;;;;;5007788;28;20245;-86
2021/08/18 12:41:06;;;;;;;3.33;1.80;;;22.30;97.30;;;;;;4990300;28;20331;-87
2021/08/18 12:43:32;;;;;;;1.97;1.33;;;22.50;97.10;;;;;;4990475;28;20266;-88
2021/08/18 12:45:58;;;;;;;2.33;1.20;;;22.80;95.80;;;;;;4987204;28;20497;-90